createdAt,value
2023-05-02T00:00:08.722Z,10.63
2023-05-02T00:02:36.796Z,10.63
2023-05-02T00:05:03.841Z,11.55
2023-05-02T00:07:30.553Z,10.77
2023-05-02T00:10:08.794Z,11.45
2023-05-02T00:12:39.160Z,11.52
2023-05-02T00:15:06.531Z,10.60
2023-05-02T00:17:33.261Z,11.43
2023-05-02T00:20:00.169Z,11.02
2023-05-02T00:22:37.041Z,10.98
2023-05-02T00:25:07.252Z,10.93
2023-05-02T00:27:33.798Z,10.80
2023-05-02T00:30:01.104Z,10.68
2023-05-02T00:32:44.427Z,11.00
2023-05-02T00:35:30.120Z,10.93
2023-05-02T00:38:02.466Z,10.63
2023-05-02T00:40:29.365Z,10.70
2023-05-02T00:42:57.178Z,11.18
2023-05-02T00:45:23.875Z,10.32
2023-05-02T00:47:50.709Z,10.77
2023-05-02T00:50:19.175Z,10.18
2023-05-02T00:52:59.826Z,10.43
2023-05-02T00:55:29.741Z,10.15
2023-05-02T00:57:58.939Z,9.85
2023-05-02T01:00:40.401Z,9.25
2023-05-02T01:03:24.969Z,9.80
2023-05-02T01:06:05.748Z,8.63
2023-05-02T01:08:52.529Z,8.93
2023-05-02T01:11:53.935Z,9.00
2023-05-02T01:14:26.322Z,8.82
2023-05-02T01:19:29.342Z,7.95
2023-05-02T01:22:09.194Z,8.00
2023-05-02T01:24:57.650Z,8.27
2023-05-02T01:27:49.762Z,8.57
2023-05-02T01:30:18.966Z,7.80
2023-05-02T01:32:47.375Z,8.85
2023-05-02T01:35:20.240Z,9.23
2023-05-02T01:37:52.871Z,8.20
2023-05-02T01:40:22.816Z,7.50
2023-05-02T01:42:55.622Z,7.75
2023-05-02T01:45:33.682Z,7.80
2023-05-02T01:48:01.553Z,7.28
2023-05-02T01:50:28.602Z,8.45
2023-05-02T01:53:01.363Z,8.38
2023-05-02T01:55:28.948Z,8.60
2023-05-02T01:57:59.337Z,8.68
2023-05-02T02:00:26.673Z,9.23
2023-05-02T02:02:57.543Z,9.05
2023-05-02T02:05:25.481Z,8.98
2023-05-02T02:07:52.141Z,9.38
2023-05-02T02:10:25.297Z,9.05
2023-05-02T02:12:58.115Z,7.90
2023-05-02T02:15:29.244Z,8.55
2023-05-02T02:18:02.554Z,7.53
2023-05-02T02:20:30.308Z,7.93
2023-05-02T02:22:59.352Z,8.40
2023-05-02T02:25:27.231Z,7.35
2023-05-02T02:27:54.116Z,6.82
2023-05-02T02:30:29.801Z,7.30
2023-05-02T02:32:56.606Z,6.88
2023-05-02T02:35:33.910Z,7.38
2023-05-02T02:38:18.668Z,6.93
2023-05-02T02:40:55.136Z,7.18
2023-05-02T02:43:45.719Z,7.20
2023-05-02T02:46:43.257Z,6.82
2023-05-02T02:49:38.148Z,6.97
2023-05-02T02:52:16.368Z,7.13
2023-05-02T02:54:55.350Z,7.22
2023-05-02T02:57:46.054Z,7.40
2023-05-02T03:00:25.057Z,7.07
2023-05-02T03:03:09.016Z,6.85
2023-05-02T03:05:36.141Z,6.78
2023-05-02T03:08:03.034Z,7.55
2023-05-02T03:10:32.520Z,7.35
2023-05-02T03:12:59.730Z,6.80
2023-05-02T03:16:02.962Z,7.50
2023-05-02T03:18:29.542Z,7.10
2023-05-02T03:20:58.252Z,6.78
2023-05-02T03:23:28.239Z,6.43
2023-05-02T03:25:55.340Z,6.22
2023-05-02T03:28:29.213Z,6.55
2023-05-02T03:30:59.517Z,6.10
2023-05-02T03:33:26.209Z,6.38
2023-05-02T03:35:53.333Z,6.47
2023-05-02T03:38:19.973Z,7.18
2023-05-02T03:40:46.553Z,6.50
2023-05-02T03:43:13.331Z,6.32
2023-05-02T03:45:39.923Z,5.85
2023-05-02T03:48:06.990Z,6.95
2023-05-02T03:50:33.653Z,6.55
2023-05-02T03:53:06.331Z,6.82
2023-05-02T03:55:33.027Z,6.47
2023-05-02T03:57:59.595Z,6.85
2023-05-02T04:00:26.294Z,6.45
2023-05-02T04:02:57.314Z,6.72
2023-05-02T04:05:23.890Z,6.33
2023-05-02T04:07:50.666Z,5.90
2023-05-02T04:10:18.286Z,7.28
2023-05-02T04:12:56.056Z,6.15
2023-05-02T04:15:33.834Z,6.30
2023-05-02T04:18:00.895Z,6.05
2023-05-02T04:20:32.120Z,6.38
2023-05-02T04:23:05.596Z,5.65
2023-05-02T04:25:32.832Z,5.85
2023-05-02T04:28:01.533Z,6.00
2023-05-02T04:30:31.952Z,5.95
2023-05-02T04:33:00.909Z,5.63
2023-05-02T04:35:27.622Z,5.75
2023-05-02T04:38:01.415Z,5.45
2023-05-02T04:40:34.315Z,6.03
2023-05-02T04:43:00.798Z,5.70
2023-05-02T04:45:31.283Z,6.15
2023-05-02T04:47:58.088Z,7.03
2023-05-02T04:50:27.973Z,6.65
2023-05-02T04:52:54.686Z,6.35
2023-05-02T04:55:21.644Z,7.07
2023-05-02T04:57:48.235Z,6.10
2023-05-02T05:00:15.605Z,6.35
2023-05-02T05:02:43.251Z,6.78
2023-05-02T05:05:10.190Z,6.80
2023-05-02T05:07:37.477Z,6.22
2023-05-02T05:10:04.238Z,6.57
2023-05-02T05:12:30.812Z,6.53
2023-05-02T05:14:57.385Z,6.47
2023-05-02T05:17:24.052Z,7.38
2023-05-02T05:19:52.591Z,6.32
2023-05-02T05:22:22.916Z,6.22
2023-05-02T05:24:54.641Z,6.95
2023-05-02T05:27:21.616Z,6.65
2023-05-02T05:29:48.485Z,6.03
2023-05-02T05:32:15.217Z,6.88
2023-05-02T05:34:41.984Z,6.30
2023-05-02T05:37:08.763Z,7.53
2023-05-02T05:39:41.864Z,6.90
2023-05-02T05:42:09.859Z,5.95
2023-05-02T05:44:36.782Z,6.82
2023-05-02T05:47:03.520Z,7.00
2023-05-02T05:49:30.743Z,6.72
2023-05-02T05:51:57.579Z,7.03
2023-05-02T05:54:24.649Z,6.70
2023-05-02T05:57:02.101Z,6.65
2023-05-02T05:59:35.798Z,7.05
2023-05-02T06:02:20.014Z,6.57
2023-05-02T06:04:49.191Z,6.55
2023-05-02T06:07:20.097Z,6.30
2023-05-02T06:09:48.263Z,6.40
2023-05-02T06:12:16.489Z,8.32
2023-05-02T06:14:43.168Z,7.43
2023-05-02T06:17:09.866Z,7.40
2023-05-02T06:19:39.361Z,6.78
2023-05-02T06:22:06.087Z,6.93
2023-05-02T06:24:32.898Z,6.30
2023-05-02T06:27:00.379Z,6.55
2023-05-02T06:29:27.085Z,6.15
2023-05-02T06:31:56.877Z,6.68
2023-05-02T06:34:23.857Z,6.20
2023-05-02T06:37:06.708Z,5.95
2023-05-02T06:39:33.754Z,7.20
2023-05-02T06:42:05.234Z,6.25
2023-05-02T06:44:32.004Z,7.15
2023-05-02T06:47:00.098Z,7.00
2023-05-02T06:49:26.994Z,7.10
2023-05-02T06:51:53.750Z,6.97
2023-05-02T06:54:21.881Z,6.55
2023-05-02T06:56:48.537Z,6.95
2023-05-02T06:59:16.988Z,6.90
2023-05-02T07:01:46.602Z,7.47
2023-05-02T07:04:13.348Z,6.85
2023-05-02T07:06:40.365Z,7.20
2023-05-02T07:09:07.116Z,7.03
2023-05-02T07:11:34.086Z,6.50
2023-05-02T07:14:00.814Z,6.50
2023-05-02T07:16:28.389Z,6.20
2023-05-02T07:18:54.994Z,7.05
2023-05-02T07:21:21.629Z,6.00
2023-05-02T07:23:51.392Z,5.85
2023-05-02T07:26:19.024Z,6.43
2023-05-02T07:28:55.026Z,5.93
2023-05-02T07:31:21.773Z,5.70
2023-05-02T07:34:01.831Z,5.95
2023-05-02T07:36:30.087Z,6.25
2023-05-02T07:39:01.680Z,5.80
2023-05-02T07:41:28.740Z,6.05
2023-05-02T07:43:56.076Z,6.03
2023-05-02T07:46:22.738Z,7.13
2023-05-02T07:48:49.847Z,5.85
2023-05-02T07:51:16.501Z,5.53
2023-05-02T07:53:43.041Z,6.03
2023-05-02T07:56:09.835Z,5.65
2023-05-02T07:58:39.325Z,6.28
2023-05-02T08:01:08.545Z,6.03
2023-05-02T08:03:35.447Z,5.93
2023-05-02T08:06:02.462Z,5.57
2023-05-02T08:08:30.250Z,5.88
2023-05-02T08:10:57.052Z,5.93
2023-05-02T08:13:32.375Z,5.20
2023-05-02T08:16:10.495Z,6.25
2023-05-02T08:18:38.632Z,5.72
2023-05-02T08:21:05.804Z,5.60
2023-05-02T08:23:35.951Z,5.32
2023-05-02T08:26:19.333Z,5.43
2023-05-02T08:28:46.108Z,5.55
2023-05-02T08:31:13.145Z,5.63
2023-05-02T08:33:39.872Z,5.93
2023-05-02T08:36:15.752Z,5.82
2023-05-02T08:38:44.007Z,5.22
2023-05-02T08:41:18.682Z,5.57
2023-05-02T08:43:48.337Z,5.47
2023-05-02T08:46:16.914Z,5.88
2023-05-02T08:48:51.333Z,6.10
2023-05-02T08:51:23.687Z,5.45
2023-05-02T08:56:19.697Z,6.25
2023-05-02T08:58:46.326Z,5.60
2023-05-02T09:01:18.041Z,5.47
2023-05-02T09:03:46.819Z,5.43
2023-05-02T09:06:15.520Z,5.95
2023-05-02T09:08:44.301Z,5.68
2023-05-02T09:11:12.535Z,5.20
2023-05-02T09:13:47.607Z,5.60
2023-05-02T09:16:26.793Z,5.53
2023-05-02T09:18:55.553Z,5.60
2023-05-02T09:21:41.223Z,5.53
2023-05-02T09:24:23.052Z,5.75
2023-05-02T09:27:04.363Z,5.95
2023-05-02T09:29:44.177Z,5.85
2023-05-02T09:32:14.027Z,5.90
2023-05-02T09:34:40.939Z,6.15
2023-05-02T09:37:08.413Z,5.55
2023-05-02T09:39:35.185Z,4.80
2023-05-02T09:42:07.027Z,4.85
2023-05-02T09:44:40.808Z,5.57
2023-05-02T09:47:08.664Z,6.05
2023-05-02T09:49:47.669Z,6.07
2023-05-02T09:52:22.386Z,5.68
2023-05-02T09:54:52.774Z,5.15
2023-05-02T09:57:19.856Z,4.78
2023-05-02T09:59:57.618Z,5.57
2023-05-02T10:02:26.782Z,5.43
2023-05-02T10:04:57.314Z,4.43
2023-05-02T10:07:27.865Z,5.40
2023-05-02T10:10:01.143Z,6.40
2023-05-02T10:12:31.727Z,5.25
2023-05-02T10:15:04.114Z,5.45
2023-05-02T10:17:50.804Z,5.25
2023-05-02T10:20:29.867Z,5.45
2023-05-02T10:23:00.250Z,4.95
2023-05-02T10:25:30.707Z,6.18
2023-05-02T10:28:00.021Z,5.32
2023-05-02T10:30:30.803Z,5.28
2023-05-02T10:32:59.992Z,5.35
2023-05-02T10:39:14.977Z,6.15
2023-05-02T10:41:43.168Z,6.90
2023-05-02T10:44:11.226Z,5.18
2023-05-02T10:46:42.462Z,5.38
2023-05-02T10:49:10.984Z,5.35
2023-05-02T10:51:40.647Z,5.30
2023-05-02T10:54:24.266Z,5.78
2023-05-02T10:57:09.454Z,5.57
2023-05-02T10:59:53.911Z,5.18
2023-05-02T11:02:26.163Z,4.82
2023-05-02T11:05:07.614Z,4.88
2023-05-02T11:07:36.287Z,4.97
2023-05-02T11:10:18.440Z,4.63
2023-05-02T11:12:58.195Z,4.85
2023-05-02T11:15:28.069Z,4.70
2023-05-02T11:18:12.959Z,5.00
2023-05-02T11:20:53.551Z,5.38
2023-05-02T11:23:27.699Z,4.72
2023-05-02T11:26:00.772Z,4.28
2023-05-02T11:28:36.933Z,4.57
2023-05-02T11:31:05.147Z,4.80
2023-05-02T11:33:38.605Z,4.80
2023-05-02T11:36:08.712Z,4.95
2023-05-02T11:38:38.453Z,4.65
2023-05-02T11:41:08.284Z,4.75
2023-05-02T11:43:44.531Z,4.22
2023-05-02T11:46:42.031Z,4.55
2023-05-02T11:49:18.253Z,4.50
2023-05-02T11:51:54.377Z,3.85
2023-05-02T11:54:23.705Z,4.72
2023-05-02T11:56:58.749Z,4.30
2023-05-02T11:59:33.467Z,4.20
2023-05-02T12:02:00.668Z,3.80
2023-05-02T12:04:28.400Z,3.70
2023-05-02T12:06:57.009Z,3.75
2023-05-02T12:09:23.892Z,4.10
2023-05-02T12:11:54.182Z,4.60
2023-05-02T12:14:42.398Z,4.20
2023-05-02T12:17:18.719Z,4.68
2023-05-02T12:20:01.693Z,4.72
2023-05-02T12:22:45.436Z,4.57
2023-05-02T12:25:35.685Z,4.63
2023-05-02T12:28:22.955Z,4.03
2023-05-02T12:30:51.819Z,4.65
2023-05-02T12:33:34.269Z,5.10
2023-05-02T12:36:11.946Z,4.78
2023-05-02T12:38:40.751Z,5.05
2023-05-02T12:41:24.695Z,4.32
2023-05-02T12:43:52.805Z,4.95
2023-05-02T12:46:48.121Z,4.90
2023-05-02T12:49:59.829Z,4.65
2023-05-02T12:53:02.944Z,4.47
2023-05-02T12:55:53.143Z,4.35
2023-05-02T12:58:28.986Z,4.55
2023-05-02T13:01:03.540Z,4.53
2023-05-02T13:03:41.417Z,4.38
2023-05-02T13:06:17.454Z,4.82
2023-05-02T13:09:07.046Z,4.65
2023-05-02T13:11:42.592Z,4.18
2023-05-02T13:14:16.091Z,4.63
2023-05-02T13:16:52.088Z,4.43
2023-05-02T13:19:20.839Z,4.40
2023-05-02T13:21:51.080Z,5.13
2023-05-02T13:24:20.745Z,4.50
2023-05-02T13:26:55.616Z,4.55
2023-05-02T13:29:42.527Z,4.53
2023-05-02T13:32:16.456Z,4.35
2023-05-02T13:35:02.824Z,4.30
2023-05-02T13:37:51.703Z,4.57
2023-05-02T13:40:24.699Z,4.22
2023-05-02T13:43:07.670Z,4.45
2023-05-02T13:45:57.203Z,4.32
2023-05-02T13:48:32.820Z,5.00
2023-05-02T13:51:14.616Z,4.07
2023-05-02T13:53:46.509Z,4.35
2023-05-02T13:56:20.070Z,4.03
2023-05-02T13:58:53.476Z,3.88
2023-05-02T14:01:20.249Z,4.07
2023-05-02T14:03:47.345Z,3.80
2023-05-02T14:06:27.008Z,3.63
2023-05-02T14:08:55.701Z,3.80
2023-05-02T14:11:30.872Z,3.60
2023-05-02T14:13:59.481Z,3.78
2023-05-02T14:16:30.667Z,3.58
2023-05-02T14:18:59.185Z,3.83
2023-05-02T14:21:25.951Z,3.80
2023-05-02T14:23:52.749Z,3.45
2023-05-02T14:26:24.729Z,3.45
2023-05-02T14:29:00.996Z,2.92
2023-05-02T14:31:28.039Z,3.83
2023-05-02T14:33:59.530Z,3.28
2023-05-02T14:36:27.708Z,3.40
2023-05-02T14:38:54.360Z,3.33
2023-05-02T14:41:22.688Z,3.15
2023-05-02T14:43:51.977Z,2.90
2023-05-02T14:46:19.427Z,3.65
2023-05-02T14:48:49.340Z,2.78
2023-05-02T14:51:21.008Z,3.30
2023-05-02T14:53:54.399Z,3.72
2023-05-02T14:56:21.852Z,3.17
2023-05-02T14:58:53.296Z,3.47
2023-05-02T15:01:31.291Z,3.30
2023-05-02T15:04:06.450Z,3.40
2023-05-02T15:06:45.794Z,3.35
2023-05-02T15:09:12.926Z,3.72
2023-05-02T15:11:40.689Z,3.65
2023-05-02T15:14:07.555Z,3.33
2023-05-02T15:16:34.775Z,3.42
2023-05-02T15:19:03.082Z,3.60
2023-05-02T15:21:30.911Z,3.70
2023-05-02T15:24:00.122Z,3.47
2023-05-02T15:26:31.057Z,4.45
2023-05-02T15:29:07.550Z,3.25
2023-05-02T15:31:34.706Z,3.33
2023-05-02T15:34:01.417Z,3.80
2023-05-02T15:36:37.428Z,3.72
2023-05-02T15:39:11.682Z,3.75
2023-05-02T15:41:38.488Z,3.25
2023-05-02T15:44:05.481Z,3.13
2023-05-02T15:46:41.123Z,3.30
2023-05-02T15:49:07.891Z,3.00
2023-05-02T15:51:34.620Z,2.95
2023-05-02T15:54:01.774Z,3.28
2023-05-02T15:56:29.657Z,3.38
2023-05-02T15:58:58.638Z,3.92
2023-05-02T16:01:27.976Z,2.95
2023-05-02T16:03:58.782Z,3.38
2023-05-02T16:06:26.052Z,3.20
2023-05-02T16:08:54.208Z,3.00
2023-05-02T16:11:21.073Z,3.00
2023-05-02T16:13:48.008Z,3.55
2023-05-02T16:16:18.020Z,3.22
2023-05-02T16:18:44.738Z,3.00
2023-05-02T16:21:11.717Z,3.50
2023-05-02T16:23:38.465Z,2.78
2023-05-02T16:26:05.390Z,3.08
2023-05-02T16:28:37.927Z,3.22
2023-05-02T16:31:17.508Z,3.20
2023-05-02T16:33:46.616Z,2.53
2023-05-02T16:36:15.294Z,2.95
2023-05-02T16:38:43.255Z,3.00
2023-05-02T16:41:10.550Z,3.20
2023-05-02T16:43:37.938Z,3.97
2023-05-02T16:46:13.961Z,3.00
2023-05-02T16:48:43.847Z,2.92
2023-05-02T16:51:10.746Z,3.35
2023-05-02T16:53:38.655Z,3.30
2023-05-02T16:56:15.040Z,3.38
2023-05-02T16:58:41.802Z,3.10
2023-05-02T17:01:17.279Z,3.22
2023-05-02T17:03:44.966Z,2.85
2023-05-02T17:06:16.074Z,3.53
2023-05-02T17:08:43.066Z,3.60
2023-05-02T17:11:15.987Z,3.28
2023-05-02T17:13:49.911Z,3.53
2023-05-02T17:16:18.266Z,3.28
2023-05-02T17:18:45.149Z,3.47
2023-05-02T17:21:12.150Z,4.00
2023-05-02T17:23:40.309Z,3.33
2023-05-02T17:26:16.101Z,3.20
2023-05-02T17:28:50.478Z,3.05
2023-05-02T17:31:17.682Z,3.03
2023-05-02T17:33:45.864Z,4.03
2023-05-02T17:36:15.862Z,3.92
2023-05-02T17:38:43.995Z,3.15
2023-05-02T17:41:16.493Z,3.47
2023-05-02T17:43:46.829Z,3.10
2023-05-02T17:46:20.784Z,3.78
2023-05-02T17:48:48.809Z,3.47
2023-05-02T17:51:16.086Z,3.08
2023-05-02T17:53:48.748Z,3.55
2023-05-02T17:56:21.937Z,3.05
2023-05-02T17:58:57.066Z,3.63
2023-05-02T18:01:27.903Z,3.45
2023-05-02T18:03:59.345Z,3.43
2023-05-02T18:06:27.844Z,3.22
2023-05-02T18:09:00.413Z,3.50
2023-05-02T18:11:29.798Z,2.75
2023-05-02T18:14:02.176Z,2.95
2023-05-02T18:16:29.395Z,3.40
2023-05-02T18:18:56.434Z,3.10
2023-05-02T18:21:40.090Z,3.20
2023-05-02T18:24:07.953Z,2.83
2023-05-02T18:26:38.226Z,3.40
2023-05-02T18:29:14.104Z,3.15
2023-05-02T18:31:42.285Z,3.10
2023-05-02T18:34:09.501Z,3.90
2023-05-02T18:36:40.292Z,2.95
2023-05-02T18:39:07.067Z,2.92
2023-05-02T18:41:33.812Z,3.15
2023-05-02T18:44:00.830Z,3.40
2023-05-02T18:46:30.941Z,2.90
2023-05-02T18:48:58.555Z,3.88
2023-05-02T18:51:31.480Z,3.50
2023-05-02T18:54:00.391Z,3.00
2023-05-02T18:56:31.858Z,3.03
2023-05-02T18:59:03.351Z,3.45
2023-05-02T19:01:33.969Z,3.05
2023-05-02T19:04:06.096Z,3.20
2023-05-02T19:06:35.891Z,2.80
2023-05-02T19:09:07.134Z,2.90
2023-05-02T19:11:37.011Z,3.10
2023-05-02T19:14:04.361Z,2.60
2023-05-02T19:16:38.906Z,3.10
2023-05-02T19:19:09.013Z,3.10
2023-05-02T19:21:36.376Z,2.38
2023-05-02T19:24:04.109Z,2.42
2023-05-02T19:26:31.560Z,2.33
2023-05-02T19:29:05.816Z,2.58
2023-05-02T19:31:34.871Z,2.15
2023-05-02T19:34:01.998Z,2.13
2023-05-02T19:36:33.636Z,1.90
2023-05-02T19:39:13.765Z,1.98
2023-05-02T19:41:55.151Z,1.80
2023-05-02T19:44:27.105Z,2.10
2023-05-02T19:46:56.745Z,2.40
2023-05-02T19:49:25.478Z,1.85
2023-05-02T19:52:04.770Z,2.08
2023-05-02T19:54:40.611Z,2.17
2023-05-02T19:57:12.153Z,1.88
2023-05-02T19:59:44.841Z,2.00
2023-05-02T20:02:23.523Z,1.98
2023-05-02T20:04:56.682Z,2.20
2023-05-02T20:10:36.685Z,2.53
2023-05-02T20:13:15.239Z,2.20
2023-05-02T20:15:50.147Z,2.53
2023-05-02T20:18:46.696Z,2.60
2023-05-02T20:21:36.768Z,2.10
2023-05-02T20:24:20.287Z,2.30
2023-05-02T20:26:57.718Z,2.22
2023-05-02T20:29:38.209Z,1.67
2023-05-02T20:32:10.818Z,1.70
2023-05-02T20:34:43.870Z,1.95
2023-05-02T20:37:12.333Z,1.80
2023-05-02T20:40:01.294Z,1.60
2023-05-02T20:42:32.077Z,1.70
2023-05-02T20:45:09.391Z,1.77
2023-05-02T20:47:41.186Z,1.27
2023-05-02T20:55:18.181Z,1.40
2023-05-02T20:57:45.966Z,1.40
2023-05-02T21:00:14.597Z,1.40
2023-05-02T21:02:49.606Z,1.25
2023-05-02T21:05:20.485Z,1.17
2023-05-02T21:07:47.662Z,1.58
2023-05-02T21:10:24.376Z,1.25
2023-05-02T21:13:00.874Z,1.42
2023-05-02T21:15:32.913Z,1.70
2023-05-02T21:18:12.122Z,1.50
2023-05-02T21:20:44.273Z,1.42
2023-05-02T21:23:11.671Z,1.35
2023-05-02T21:25:41.637Z,1.20
2023-05-02T21:28:10.904Z,1.10
2023-05-02T21:30:37.530Z,1.20
2023-05-02T21:33:09.794Z,1.05
2023-05-02T21:35:39.837Z,1.15
2023-05-02T21:38:09.305Z,1.15
2023-05-02T21:40:38.124Z,1.48
2023-05-02T21:43:08.230Z,1.10
2023-05-02T21:45:34.967Z,0.98
2023-05-02T21:48:01.754Z,0.88
2023-05-02T21:50:31.061Z,1.10
2023-05-02T21:53:07.287Z,1.55
2023-05-02T21:55:42.754Z,1.02
2023-05-02T21:58:18.953Z,1.00
2023-05-02T22:00:57.546Z,1.02
2023-05-02T22:03:25.907Z,0.80
2023-05-02T22:05:54.653Z,0.90
2023-05-02T22:08:27.604Z,0.88
2023-05-02T22:11:02.446Z,0.80
2023-05-02T22:13:29.373Z,1.17
2023-05-02T22:16:01.215Z,0.70
2023-05-02T22:21:03.796Z,0.80
2023-05-02T22:23:31.172Z,1.08
2023-05-02T22:26:07.161Z,1.05
2023-05-02T22:28:33.898Z,1.00
2023-05-02T22:31:03.510Z,1.08
2023-05-02T22:33:30.338Z,1.10
2023-05-02T22:35:58.654Z,0.90
2023-05-02T22:38:30.490Z,1.05
2023-05-02T22:43:26.767Z,1.10
2023-05-02T22:45:54.229Z,0.90
2023-05-02T22:48:25.791Z,0.80
2023-05-02T22:50:55.828Z,1.13
2023-05-02T22:53:25.065Z,1.10
2023-05-02T22:56:00.569Z,0.73
2023-05-02T22:58:27.385Z,0.80
2023-05-02T23:01:03.411Z,0.98
2023-05-02T23:03:32.737Z,1.10
2023-05-02T23:06:00.939Z,1.15
2023-05-02T23:08:27.950Z,0.93
2023-05-02T23:10:55.015Z,0.73
2023-05-02T23:13:22.033Z,0.95
2023-05-02T23:15:54.636Z,0.82
2023-05-02T23:18:27.323Z,0.90
2023-05-02T23:20:54.134Z,0.65
2023-05-02T23:23:25.648Z,1.17
2023-05-02T23:25:53.569Z,0.90
2023-05-02T23:28:20.448Z,0.85
2023-05-02T23:30:48.670Z,0.98
2023-05-02T23:33:18.567Z,0.85
2023-05-02T23:35:45.663Z,0.80
2023-05-02T23:38:12.465Z,0.90
2023-05-02T23:40:39.197Z,0.70
2023-05-02T23:43:15.975Z,0.88
2023-05-02T23:45:43.884Z,1.20
2023-05-02T23:48:11.200Z,1.02
2023-05-02T23:50:38.032Z,1.00
2023-05-02T23:53:07.747Z,0.93
2023-05-02T23:55:38.769Z,1.25
2023-05-02T23:58:06.855Z,0.90
